sensor_id;sensor_type;location;lat;lon;timestamp;P1;durP1;ratioP1;P2;durP2;ratioP2
53503;SDS011;39387;50.998;22.340;2023-04-08T00:00:26;22.55;;;10.63;;
53503;SDS011;39387;50.998;22.340;2023-04-08T00:03:13;22.50;;;9.45;;
53503;SDS011;39387;50.998;22.340;2023-04-08T00:05:42;23.70;;;10.45;;
53503;SDS011;39387;50.998;22.340;2023-04-08T00:08:10;21.13;;;9.27;;
53503;SDS011;39387;50.998;22.340;2023-04-08T00:10:38;22.08;;;9.45;;
53503;SDS011;39387;50.998;22.340;2023-04-08T00:13:06;23.75;;;9.00;;
53503;SDS011;39387;50.998;22.340;2023-04-08T00:15:33;19.27;;;8.60;;
53503;SDS011;39387;50.998;22.340;2023-04-08T00:18:01;24.25;;;8.65;;
53503;SDS011;39387;50.998;22.340;2023-04-08T00:20:28;18.33;;;8.20;;
53503;SDS011;39387;50.998;22.340;2023-04-08T00:22:57;18.83;;;8.00;;
53503;SDS011;39387;50.998;22.340;2023-04-08T00:25:24;21.55;;;8.18;;
53503;SDS011;39387;50.998;22.340;2023-04-08T00:27:52;14.65;;;7.70;;
53503;SDS011;39387;50.998;22.340;2023-04-08T00:30:19;15.70;;;8.23;;
53503;SDS011;39387;50.998;22.340;2023-04-08T00:32:47;17.70;;;7.82;;
53503;SDS011;39387;50.998;22.340;2023-04-08T00:35:14;18.75;;;8.13;;
53503;SDS011;39387;50.998;22.340;2023-04-08T00:37:42;15.52;;;7.40;;
53503;SDS011;39387;50.998;22.340;2023-04-08T00:40:12;20.63;;;9.10;;
53503;SDS011;39387;50.998;22.340;2023-04-08T00:42:39;17.70;;;7.93;;
53503;SDS011;39387;50.998;22.340;2023-04-08T00:45:07;18.48;;;7.65;;
53503;SDS011;39387;50.998;22.340;2023-04-08T00:47:36;16.17;;;8.32;;
53503;SDS011;39387;50.998;22.340;2023-04-08T00:50:04;15.43;;;7.25;;
53503;SDS011;39387;50.998;22.340;2023-04-08T00:52:34;16.80;;;8.27;;
53503;SDS011;39387;50.998;22.340;2023-04-08T00:55:02;21.52;;;10.48;;
53503;SDS011;39387;50.998;22.340;2023-04-08T00:57:31;18.65;;;8.23;;
53503;SDS011;39387;50.998;22.340;2023-04-08T00:59:59;15.68;;;7.55;;
53503;SDS011;39387;50.998;22.340;2023-04-08T01:02:28;18.75;;;8.52;;
53503;SDS011;39387;50.998;22.340;2023-04-08T01:05:03;19.58;;;9.27;;
53503;SDS011;39387;50.998;22.340;2023-04-08T01:07:33;16.25;;;7.35;;
53503;SDS011;39387;50.998;22.340;2023-04-08T01:10:04;15.43;;;7.73;;
53503;SDS011;39387;50.998;22.340;2023-04-08T01:12:36;20.27;;;8.77;;
53503;SDS011;39387;50.998;22.340;2023-04-08T01:15:06;17.40;;;8.02;;
53503;SDS011;39387;50.998;22.340;2023-04-08T01:17:36;18.05;;;8.18;;
53503;SDS011;39387;50.998;22.340;2023-04-08T01:20:04;19.00;;;8.15;;
53503;SDS011;39387;50.998;22.340;2023-04-08T01:22:36;20.95;;;8.52;;
53503;SDS011;39387;50.998;22.340;2023-04-08T01:25:18;18.67;;;8.18;;
53503;SDS011;39387;50.998;22.340;2023-04-08T01:27:49;15.90;;;7.63;;
53503;SDS011;39387;50.998;22.340;2023-04-08T01:30:21;19.73;;;8.23;;
53503;SDS011;39387;50.998;22.340;2023-04-08T01:32:50;20.48;;;9.85;;
53503;SDS011;39387;50.998;22.340;2023-04-08T01:35:18;18.33;;;8.43;;
53503;SDS011;39387;50.998;22.340;2023-04-08T01:37:46;16.30;;;7.70;;
53503;SDS011;39387;50.998;22.340;2023-04-08T01:40:14;14.75;;;7.05;;
53503;SDS011;39387;50.998;22.340;2023-04-08T01:42:43;21.92;;;9.15;;
53503;SDS011;39387;50.998;22.340;2023-04-08T01:45:13;18.02;;;8.65;;
53503;SDS011;39387;50.998;22.340;2023-04-08T01:47:41;20.33;;;9.38;;
53503;SDS011;39387;50.998;22.340;2023-04-08T01:50:09;18.50;;;7.93;;
53503;SDS011;39387;50.998;22.340;2023-04-08T01:52:37;18.05;;;8.57;;
53503;SDS011;39387;50.998;22.340;2023-04-08T01:55:06;18.13;;;7.72;;
53503;SDS011;39387;50.998;22.340;2023-04-08T01:57:35;19.42;;;8.40;;
53503;SDS011;39387;50.998;22.340;2023-04-08T02:00:04;18.35;;;8.23;;
53503;SDS011;39387;50.998;22.340;2023-04-08T02:02:36;17.48;;;7.70;;
53503;SDS011;39387;50.998;22.340;2023-04-08T02:05:05;18.88;;;8.52;;
53503;SDS011;39387;50.998;22.340;2023-04-08T02:07:33;19.55;;;7.97;;
53503;SDS011;39387;50.998;22.340;2023-04-08T02:10:01;13.43;;;6.72;;
53503;SDS011;39387;50.998;22.340;2023-04-08T02:12:29;13.02;;;6.72;;
53503;SDS011;39387;50.998;22.340;2023-04-08T02:14:56;15.77;;;7.88;;
53503;SDS011;39387;50.998;22.340;2023-04-08T02:17:25;13.85;;;7.28;;
53503;SDS011;39387;50.998;22.340;2023-04-08T02:19:58;14.93;;;7.18;;
53503;SDS011;39387;50.998;22.340;2023-04-08T02:22:35;17.83;;;8.52;;
53503;SDS011;39387;50.998;22.340;2023-04-08T02:25:07;16.63;;;7.32;;
53503;SDS011;39387;50.998;22.340;2023-04-08T02:27:35;15.88;;;8.25;;
53503;SDS011;39387;50.998;22.340;2023-04-08T02:30:03;14.43;;;7.65;;
53503;SDS011;39387;50.998;22.340;2023-04-08T02:32:33;18.08;;;8.95;;
53503;SDS011;39387;50.998;22.340;2023-04-08T02:35:02;16.63;;;8.00;;
53503;SDS011;39387;50.998;22.340;2023-04-08T02:37:31;22.75;;;8.68;;
53503;SDS011;39387;50.998;22.340;2023-04-08T02:39:59;21.67;;;8.48;;
53503;SDS011;39387;50.998;22.340;2023-04-08T02:42:26;21.42;;;8.00;;
53503;SDS011;39387;50.998;22.340;2023-04-08T02:44:54;20.60;;;8.65;;
53503;SDS011;39387;50.998;22.340;2023-04-08T02:47:23;18.38;;;8.57;;
53503;SDS011;39387;50.998;22.340;2023-04-08T02:49:50;22.48;;;8.23;;
53503;SDS011;39387;50.998;22.340;2023-04-08T02:52:21;19.15;;;8.80;;
53503;SDS011;39387;50.998;22.340;2023-04-08T02:54:48;21.33;;;9.10;;
53503;SDS011;39387;50.998;22.340;2023-04-08T02:57:16;21.38;;;10.18;;
53503;SDS011;39387;50.998;22.340;2023-04-08T02:59:43;17.33;;;8.50;;
53503;SDS011;39387;50.998;22.340;2023-04-08T03:02:11;24.65;;;9.98;;
53503;SDS011;39387;50.998;22.340;2023-04-08T03:04:38;23.10;;;10.65;;
53503;SDS011;39387;50.998;22.340;2023-04-08T03:07:06;33.08;;;12.90;;
53503;SDS011;39387;50.998;22.340;2023-04-08T03:09:34;22.88;;;9.85;;
53503;SDS011;39387;50.998;22.340;2023-04-08T03:12:02;29.02;;;10.90;;
53503;SDS011;39387;50.998;22.340;2023-04-08T03:14:30;36.38;;;12.82;;
53503;SDS011;39387;50.998;22.340;2023-04-08T03:16:57;32.03;;;12.40;;
53503;SDS011;39387;50.998;22.340;2023-04-08T03:19:25;39.08;;;13.75;;
53503;SDS011;39387;50.998;22.340;2023-04-08T03:21:52;28.83;;;10.50;;
53503;SDS011;39387;50.998;22.340;2023-04-08T03:24:20;28.42;;;11.85;;
53503;SDS011;39387;50.998;22.340;2023-04-08T03:26:49;25.95;;;10.80;;
53503;SDS011;39387;50.998;22.340;2023-04-08T03:29:16;30.50;;;11.02;;
53503;SDS011;39387;50.998;22.340;2023-04-08T03:31:44;25.38;;;10.55;;
53503;SDS011;39387;50.998;22.340;2023-04-08T03:34:12;25.45;;;10.27;;
53503;SDS011;39387;50.998;22.340;2023-04-08T03:36:39;27.80;;;10.82;;
53503;SDS011;39387;50.998;22.340;2023-04-08T03:39:06;31.35;;;12.80;;
53503;SDS011;39387;50.998;22.340;2023-04-08T03:41:34;29.25;;;11.95;;
53503;SDS011;39387;50.998;22.340;2023-04-08T03:44:04;35.50;;;12.32;;
53503;SDS011;39387;50.998;22.340;2023-04-08T03:46:31;28.15;;;11.60;;
53503;SDS011;39387;50.998;22.340;2023-04-08T03:48:59;33.08;;;12.05;;
53503;SDS011;39387;50.998;22.340;2023-04-08T03:51:26;30.08;;;12.48;;
53503;SDS011;39387;50.998;22.340;2023-04-08T03:53:54;35.10;;;13.32;;
53503;SDS011;39387;50.998;22.340;2023-04-08T03:56:21;28.08;;;10.43;;
53503;SDS011;39387;50.998;22.340;2023-04-08T03:58:50;27.27;;;11.95;;
53503;SDS011;39387;50.998;22.340;2023-04-08T04:01:18;26.88;;;10.07;;
53503;SDS011;39387;50.998;22.340;2023-04-08T04:03:46;28.88;;;11.50;;
53503;SDS011;39387;50.998;22.340;2023-04-08T04:06:13;30.10;;;11.65;;
53503;SDS011;39387;50.998;22.340;2023-04-08T04:08:41;27.35;;;11.02;;
53503;SDS011;39387;50.998;22.340;2023-04-08T04:11:08;35.60;;;12.95;;
53503;SDS011;39387;50.998;22.340;2023-04-08T04:13:36;30.48;;;12.55;;
53503;SDS011;39387;50.998;22.340;2023-04-08T04:16:03;29.25;;;12.02;;
53503;SDS011;39387;50.998;22.340;2023-04-08T04:18:33;20.30;;;10.13;;
53503;SDS011;39387;50.998;22.340;2023-04-08T04:21:00;27.35;;;11.63;;
53503;SDS011;39387;50.998;22.340;2023-04-08T04:23:31;28.63;;;12.95;;
53503;SDS011;39387;50.998;22.340;2023-04-08T04:25:59;30.10;;;12.32;;
53503;SDS011;39387;50.998;22.340;2023-04-08T04:28:26;27.23;;;12.82;;
53503;SDS011;39387;50.998;22.340;2023-04-08T04:30:54;26.73;;;12.43;;
53503;SDS011;39387;50.998;22.340;2023-04-08T04:33:21;23.48;;;11.60;;
53503;SDS011;39387;50.998;22.340;2023-04-08T04:35:50;21.13;;;9.43;;
53503;SDS011;39387;50.998;22.340;2023-04-08T04:38:18;29.75;;;12.38;;
53503;SDS011;39387;50.998;22.340;2023-04-08T04:40:45;27.63;;;11.23;;
53503;SDS011;39387;50.998;22.340;2023-04-08T04:43:13;26.05;;;11.85;;
53503;SDS011;39387;50.998;22.340;2023-04-08T04:45:40;23.83;;;11.40;;
53503;SDS011;39387;50.998;22.340;2023-04-08T04:48:09;26.40;;;12.23;;
53503;SDS011;39387;50.998;22.340;2023-04-08T04:50:37;23.40;;;10.82;;
53503;SDS011;39387;50.998;22.340;2023-04-08T04:53:06;22.15;;;10.43;;
53503;SDS011;39387;50.998;22.340;2023-04-08T04:55:33;22.35;;;10.77;;
53503;SDS011;39387;50.998;22.340;2023-04-08T04:58:01;24.08;;;11.82;;
53503;SDS011;39387;50.998;22.340;2023-04-08T05:00:28;24.05;;;11.60;;
53503;SDS011;39387;50.998;22.340;2023-04-08T05:02:56;27.23;;;11.75;;
53503;SDS011;39387;50.998;22.340;2023-04-08T05:05:23;25.58;;;11.10;;
53503;SDS011;39387;50.998;22.340;2023-04-08T05:07:51;24.60;;;11.48;;
53503;SDS011;39387;50.998;22.340;2023-04-08T05:10:20;29.80;;;12.63;;
53503;SDS011;39387;50.998;22.340;2023-04-08T05:12:48;25.17;;;11.73;;
53503;SDS011;39387;50.998;22.340;2023-04-08T05:15:15;29.48;;;12.32;;
53503;SDS011;39387;50.998;22.340;2023-04-08T05:17:43;27.15;;;12.88;;
53503;SDS011;39387;50.998;22.340;2023-04-08T05:20:10;28.17;;;12.80;;
53503;SDS011;39387;50.998;22.340;2023-04-08T05:22:38;28.27;;;11.93;;
53503;SDS011;39387;50.998;22.340;2023-04-08T05:25:05;31.42;;;13.48;;
53503;SDS011;39387;50.998;22.340;2023-04-08T05:27:35;23.55;;;11.75;;
53503;SDS011;39387;50.998;22.340;2023-04-08T05:30:03;25.73;;;11.15;;
53503;SDS011;39387;50.998;22.340;2023-04-08T05:32:31;28.73;;;12.38;;
53503;SDS011;39387;50.998;22.340;2023-04-08T05:35:00;25.10;;;12.07;;
53503;SDS011;39387;50.998;22.340;2023-04-08T05:37:28;29.42;;;13.07;;
53503;SDS011;39387;50.998;22.340;2023-04-08T05:39:56;21.90;;;11.00;;
53503;SDS011;39387;50.998;22.340;2023-04-08T05:42:23;28.30;;;12.57;;
53503;SDS011;39387;50.998;22.340;2023-04-08T05:44:53;23.35;;;10.98;;
53503;SDS011;39387;50.998;22.340;2023-04-08T05:47:20;22.33;;;11.18;;
53503;SDS011;39387;50.998;22.340;2023-04-08T05:49:48;28.58;;;13.45;;
53503;SDS011;39387;50.998;22.340;2023-04-08T05:52:15;24.42;;;12.68;;
53503;SDS011;39387;50.998;22.340;2023-04-08T05:54:43;31.10;;;12.45;;
53503;SDS011;39387;50.998;22.340;2023-04-08T05:57:11;27.17;;;12.77;;
53503;SDS011;39387;50.998;22.340;2023-04-08T05:59:38;25.77;;;13.60;;
53503;SDS011;39387;50.998;22.340;2023-04-08T06:02:08;23.02;;;12.15;;
53503;SDS011;39387;50.998;22.340;2023-04-08T06:04:35;25.35;;;11.65;;
53503;SDS011;39387;50.998;22.340;2023-04-08T06:07:03;28.67;;;13.27;;
53503;SDS011;39387;50.998;22.340;2023-04-08T06:09:33;25.67;;;12.32;;
53503;SDS011;39387;50.998;22.340;2023-04-08T06:12:02;23.15;;;11.52;;
53503;SDS011;39387;50.998;22.340;2023-04-08T06:14:30;20.48;;;11.77;;
53503;SDS011;39387;50.998;22.340;2023-04-08T06:16:58;19.52;;;9.88;;
53503;SDS011;39387;50.998;22.340;2023-04-08T06:19:27;16.15;;;9.60;;
53503;SDS011;39387;50.998;22.340;2023-04-08T06:21:54;21.48;;;11.10;;
53503;SDS011;39387;50.998;22.340;2023-04-08T06:24:23;20.73;;;10.35;;
53503;SDS011;39387;50.998;22.340;2023-04-08T06:26:52;19.00;;;10.18;;
53503;SDS011;39387;50.998;22.340;2023-04-08T06:29:19;17.67;;;10.00;;
53503;SDS011;39387;50.998;22.340;2023-04-08T06:31:47;17.23;;;9.68;;
53503;SDS011;39387;50.998;22.340;2023-04-08T06:34:15;18.65;;;9.85;;
53503;SDS011;39387;50.998;22.340;2023-04-08T06:36:44;17.48;;;9.93;;
53503;SDS011;39387;50.998;22.340;2023-04-08T06:39:12;19.20;;;10.82;;
53503;SDS011;39387;50.998;22.340;2023-04-08T06:41:41;19.70;;;10.55;;
53503;SDS011;39387;50.998;22.340;2023-04-08T06:44:09;22.70;;;11.10;;
53503;SDS011;39387;50.998;22.340;2023-04-08T06:46:36;21.48;;;11.30;;
53503;SDS011;39387;50.998;22.340;2023-04-08T06:49:04;19.40;;;11.18;;
53503;SDS011;39387;50.998;22.340;2023-04-08T06:51:32;21.48;;;10.55;;
53503;SDS011;39387;50.998;22.340;2023-04-08T06:54:00;18.20;;;10.73;;
53503;SDS011;39387;50.998;22.340;2023-04-08T06:56:28;18.90;;;10.25;;
53503;SDS011;39387;50.998;22.340;2023-04-08T06:58:56;22.48;;;11.68;;
53503;SDS011;39387;50.998;22.340;2023-04-08T07:01:24;19.58;;;11.15;;
53503;SDS011;39387;50.998;22.340;2023-04-08T07:03:51;17.85;;;10.18;;
53503;SDS011;39387;50.998;22.340;2023-04-08T07:06:19;19.40;;;9.98;;
53503;SDS011;39387;50.998;22.340;2023-04-08T07:08:49;17.65;;;9.70;;
53503;SDS011;39387;50.998;22.340;2023-04-08T07:11:18;18.98;;;10.40;;
53503;SDS011;39387;50.998;22.340;2023-04-08T07:13:46;17.33;;;9.80;;
53503;SDS011;39387;50.998;22.340;2023-04-08T07:16:14;17.80;;;10.90;;
53503;SDS011;39387;50.998;22.340;2023-04-08T07:18:42;17.90;;;9.77;;
53503;SDS011;39387;50.998;22.340;2023-04-08T07:21:09;16.52;;;9.80;;
53503;SDS011;39387;50.998;22.340;2023-04-08T07:23:37;19.67;;;10.65;;
53503;SDS011;39387;50.998;22.340;2023-04-08T07:26:05;18.27;;;9.77;;
53503;SDS011;39387;50.998;22.340;2023-04-08T07:28:34;16.55;;;9.55;;
53503;SDS011;39387;50.998;22.340;2023-04-08T07:31:08;17.77;;;9.88;;
53503;SDS011;39387;50.998;22.340;2023-04-08T07:33:37;17.50;;;10.05;;
53503;SDS011;39387;50.998;22.340;2023-04-08T07:36:05;17.05;;;10.27;;
53503;SDS011;39387;50.998;22.340;2023-04-08T07:38:33;18.80;;;10.05;;
53503;SDS011;39387;50.998;22.340;2023-04-08T07:41:01;17.65;;;10.30;;
53503;SDS011;39387;50.998;22.340;2023-04-08T07:43:29;16.73;;;8.90;;
53503;SDS011;39387;50.998;22.340;2023-04-08T07:46:00;16.70;;;9.43;;
53503;SDS011;39387;50.998;22.340;2023-04-08T07:48:29;16.75;;;9.15;;
53503;SDS011;39387;50.998;22.340;2023-04-08T07:50:57;12.95;;;8.13;;
53503;SDS011;39387;50.998;22.340;2023-04-08T07:53:24;15.32;;;9.13;;
53503;SDS011;39387;50.998;22.340;2023-04-08T07:55:52;14.45;;;8.68;;
53503;SDS011;39387;50.998;22.340;2023-04-08T07:58:19;14.23;;;8.23;;
53503;SDS011;39387;50.998;22.340;2023-04-08T08:00:47;13.38;;;7.63;;
53503;SDS011;39387;50.998;22.340;2023-04-08T08:03:16;14.15;;;7.95;;
53503;SDS011;39387;50.998;22.340;2023-04-08T08:05:44;14.15;;;8.05;;
53503;SDS011;39387;50.998;22.340;2023-04-08T08:08:11;16.00;;;8.80;;
53503;SDS011;39387;50.998;22.340;2023-04-08T08:10:39;12.43;;;7.78;;
53503;SDS011;39387;50.998;22.340;2023-04-08T08:13:07;13.20;;;8.30;;
53503;SDS011;39387;50.998;22.340;2023-04-08T08:15:38;13.15;;;7.10;;
53503;SDS011;39387;50.998;22.340;2023-04-08T08:18:05;10.68;;;6.25;;
53503;SDS011;39387;50.998;22.340;2023-04-08T08:20:36;12.75;;;6.80;;
53503;SDS011;39387;50.998;22.340;2023-04-08T08:23:03;10.02;;;6.93;;
53503;SDS011;39387;50.998;22.340;2023-04-08T08:25:31;10.57;;;6.47;;
53503;SDS011;39387;50.998;22.340;2023-04-08T08:27:58;13.07;;;6.95;;
53503;SDS011;39387;50.998;22.340;2023-04-08T08:30:27;12.00;;;6.78;;
53503;SDS011;39387;50.998;22.340;2023-04-08T08:32:55;11.52;;;7.13;;
53503;SDS011;39387;50.998;22.340;2023-04-08T08:35:24;10.95;;;6.95;;
53503;SDS011;39387;50.998;22.340;2023-04-08T08:37:53;13.20;;;7.20;;
53503;SDS011;39387;50.998;22.340;2023-04-08T08:40:21;10.80;;;7.22;;
53503;SDS011;39387;50.998;22.340;2023-04-08T08:42:49;10.65;;;6.95;;
53503;SDS011;39387;50.998;22.340;2023-04-08T08:45:18;12.35;;;7.45;;
53503;SDS011;39387;50.998;22.340;2023-04-08T08:47:45;12.05;;;7.70;;
53503;SDS011;39387;50.998;22.340;2023-04-08T08:50:13;13.80;;;7.55;;
53503;SDS011;39387;50.998;22.340;2023-04-08T08:52:46;11.30;;;7.35;;
53503;SDS011;39387;50.998;22.340;2023-04-08T08:55:16;13.45;;;8.18;;
53503;SDS011;39387;50.998;22.340;2023-04-08T08:57:44;12.48;;;7.78;;
53503;SDS011;39387;50.998;22.340;2023-04-08T09:00:13;12.05;;;6.97;;
53503;SDS011;39387;50.998;22.340;2023-04-08T09:02:42;12.63;;;7.50;;
53503;SDS011;39387;50.998;22.340;2023-04-08T09:05:10;12.43;;;7.80;;
53503;SDS011;39387;50.998;22.340;2023-04-08T09:07:37;13.32;;;7.35;;
53503;SDS011;39387;50.998;22.340;2023-04-08T09:10:07;11.85;;;7.60;;
53503;SDS011;39387;50.998;22.340;2023-04-08T09:12:41;12.63;;;7.40;;
53503;SDS011;39387;50.998;22.340;2023-04-08T09:15:21;11.73;;;7.47;;
53503;SDS011;39387;50.998;22.340;2023-04-08T09:17:48;11.77;;;7.65;;
53503;SDS011;39387;50.998;22.340;2023-04-08T09:20:16;13.15;;;7.38;;
53503;SDS011;39387;50.998;22.340;2023-04-08T09:22:53;12.35;;;7.90;;
53503;SDS011;39387;50.998;22.340;2023-04-08T09:25:23;12.68;;;7.75;;
53503;SDS011;39387;50.998;22.340;2023-04-08T09:27:53;12.48;;;7.72;;
53503;SDS011;39387;50.998;22.340;2023-04-08T09:30:22;9.67;;;7.80;;
53503;SDS011;39387;50.998;22.340;2023-04-08T09:32:51;11.73;;;7.65;;
53503;SDS011;39387;50.998;22.340;2023-04-08T09:35:20;12.82;;;8.80;;
53503;SDS011;39387;50.998;22.340;2023-04-08T09:40:18;11.88;;;7.60;;
53503;SDS011;39387;50.998;22.340;2023-04-08T09:42:46;12.70;;;7.85;;
53503;SDS011;39387;50.998;22.340;2023-04-08T09:45:18;11.40;;;7.60;;
53503;SDS011;39387;50.998;22.340;2023-04-08T09:47:50;12.10;;;7.90;;
53503;SDS011;39387;50.998;22.340;2023-04-08T09:50:23;13.80;;;8.65;;
53503;SDS011;39387;50.998;22.340;2023-04-08T09:52:56;12.20;;;8.32;;
53503;SDS011;39387;50.998;22.340;2023-04-08T09:55:29;10.82;;;7.60;;
53503;SDS011;39387;50.998;22.340;2023-04-08T09:57:58;12.05;;;7.88;;
53503;SDS011;39387;50.998;22.340;2023-04-08T10:00:31;12.07;;;7.13;;
53503;SDS011;39387;50.998;22.340;2023-04-08T10:03:00;11.85;;;7.53;;
53503;SDS011;39387;50.998;22.340;2023-04-08T10:05:32;11.20;;;7.32;;
53503;SDS011;39387;50.998;22.340;2023-04-08T10:08:03;10.65;;;6.85;;
53503;SDS011;39387;50.998;22.340;2023-04-08T10:10:32;10.65;;;7.40;;
53503;SDS011;39387;50.998;22.340;2023-04-08T10:13:00;10.15;;;7.03;;
53503;SDS011;39387;50.998;22.340;2023-04-08T10:15:30;10.30;;;6.70;;
53503;SDS011;39387;50.998;22.340;2023-04-08T10:20:57;8.60;;;6.50;;
53503;SDS011;39387;50.998;22.340;2023-04-08T10:26:32;9.85;;;6.35;;
53503;SDS011;39387;50.998;22.340;2023-04-08T10:31:58;10.30;;;7.07;;
53503;SDS011;39387;50.998;22.340;2023-04-08T10:34:27;11.95;;;7.18;;
53503;SDS011;39387;50.998;22.340;2023-04-08T10:36:55;8.98;;;6.82;;
53503;SDS011;39387;50.998;22.340;2023-04-08T10:41:54;11.02;;;6.18;;
53503;SDS011;39387;50.998;22.340;2023-04-08T10:44:22;8.35;;;5.70;;
53503;SDS011;39387;50.998;22.340;2023-04-08T10:46:51;9.20;;;6.28;;
53503;SDS011;39387;50.998;22.340;2023-04-08T10:49:20;8.98;;;6.40;;
53503;SDS011;39387;50.998;22.340;2023-04-08T10:51:48;11.35;;;7.03;;
53503;SDS011;39387;50.998;22.340;2023-04-08T10:54:17;9.50;;;6.43;;
53503;SDS011;39387;50.998;22.340;2023-04-08T10:56:46;8.95;;;6.25;;
53503;SDS011;39387;50.998;22.340;2023-04-08T10:59:14;9.65;;;6.03;;
53503;SDS011;39387;50.998;22.340;2023-04-08T11:01:43;8.48;;;6.47;;
53503;SDS011;39387;50.998;22.340;2023-04-08T11:04:12;9.55;;;6.40;;
53503;SDS011;39387;50.998;22.340;2023-04-08T11:06:42;8.88;;;5.93;;
53503;SDS011;39387;50.998;22.340;2023-04-08T11:09:10;8.02;;;5.95;;
53503;SDS011;39387;50.998;22.340;2023-04-08T11:11:40;10.25;;;6.53;;
53503;SDS011;39387;50.998;22.340;2023-04-08T11:14:07;8.65;;;5.97;;
53503;SDS011;39387;50.998;22.340;2023-04-08T11:16:36;9.15;;;6.22;;
53503;SDS011;39387;50.998;22.340;2023-04-08T11:19:04;8.82;;;6.47;;
53503;SDS011;39387;50.998;22.340;2023-04-08T11:21:34;8.85;;;6.32;;
53503;SDS011;39387;50.998;22.340;2023-04-08T11:24:07;9.82;;;6.22;;
53503;SDS011;39387;50.998;22.340;2023-04-08T11:26:37;9.38;;;6.32;;
53503;SDS011;39387;50.998;22.340;2023-04-08T11:29:04;7.43;;;5.53;;
53503;SDS011;39387;50.998;22.340;2023-04-08T11:31:35;8.00;;;5.40;;
53503;SDS011;39387;50.998;22.340;2023-04-08T11:34:02;10.60;;;6.75;;
53503;SDS011;39387;50.998;22.340;2023-04-08T11:36:30;9.73;;;6.20;;
53503;SDS011;39387;50.998;22.340;2023-04-08T11:38:59;8.82;;;5.70;;
53503;SDS011;39387;50.998;22.340;2023-04-08T11:41:36;7.53;;;5.25;;
53503;SDS011;39387;50.998;22.340;2023-04-08T11:44:04;6.15;;;4.82;;
53503;SDS011;39387;50.998;22.340;2023-04-08T11:46:33;8.07;;;5.82;;
53503;SDS011;39387;50.998;22.340;2023-04-08T11:49:02;10.00;;;5.90;;
53503;SDS011;39387;50.998;22.340;2023-04-08T11:51:31;9.38;;;6.05;;
53503;SDS011;39387;50.998;22.340;2023-04-08T11:54:05;8.18;;;5.80;;
53503;SDS011;39387;50.998;22.340;2023-04-08T11:59:12;7.45;;;4.90;;
53503;SDS011;39387;50.998;22.340;2023-04-08T12:01:40;7.65;;;5.22;;
53503;SDS011;39387;50.998;22.340;2023-04-08T12:04:09;8.10;;;4.88;;
53503;SDS011;39387;50.998;22.340;2023-04-08T12:06:37;6.57;;;4.72;;
53503;SDS011;39387;50.998;22.340;2023-04-08T12:09:07;7.40;;;5.05;;
53503;SDS011;39387;50.998;22.340;2023-04-08T12:11:35;7.28;;;5.40;;
53503;SDS011;39387;50.998;22.340;2023-04-08T12:14:04;6.63;;;5.20;;
53503;SDS011;39387;50.998;22.340;2023-04-08T12:16:32;8.18;;;5.20;;
53503;SDS011;39387;50.998;22.340;2023-04-08T12:18:59;7.75;;;5.40;;
53503;SDS011;39387;50.998;22.340;2023-04-08T12:21:27;6.07;;;4.68;;
53503;SDS011;39387;50.998;22.340;2023-04-08T12:23:55;6.53;;;4.57;;
53503;SDS011;39387;50.998;22.340;2023-04-08T12:26:23;6.93;;;4.90;;
53503;SDS011;39387;50.998;22.340;2023-04-08T12:28:51;5.78;;;4.53;;
53503;SDS011;39387;50.998;22.340;2023-04-08T12:31:20;6.78;;;5.13;;
53503;SDS011;39387;50.998;22.340;2023-04-08T12:33:48;7.15;;;5.07;;
53503;SDS011;39387;50.998;22.340;2023-04-08T12:36:16;6.40;;;4.60;;
53503;SDS011;39387;50.998;22.340;2023-04-08T12:38:43;6.20;;;4.97;;
53503;SDS011;39387;50.998;22.340;2023-04-08T12:41:11;6.32;;;4.82;;
53503;SDS011;39387;50.998;22.340;2023-04-08T12:43:39;6.93;;;4.90;;
53503;SDS011;39387;50.998;22.340;2023-04-08T12:46:07;6.88;;;4.55;;
53503;SDS011;39387;50.998;22.340;2023-04-08T12:48:35;6.00;;;4.47;;
53503;SDS011;39387;50.998;22.340;2023-04-08T12:51:03;6.00;;;4.55;;
53503;SDS011;39387;50.998;22.340;2023-04-08T12:53:31;6.50;;;4.30;;
53503;SDS011;39387;50.998;22.340;2023-04-08T12:56:00;6.07;;;4.43;;
53503;SDS011;39387;50.998;22.340;2023-04-08T12:58:27;7.68;;;5.03;;
53503;SDS011;39387;50.998;22.340;2023-04-08T13:00:55;7.18;;;4.90;;
53503;SDS011;39387;50.998;22.340;2023-04-08T13:03:23;6.82;;;5.53;;
53503;SDS011;39387;50.998;22.340;2023-04-08T13:05:54;6.90;;;5.35;;
53503;SDS011;39387;50.998;22.340;2023-04-08T13:08:23;7.00;;;4.95;;
53503;SDS011;39387;50.998;22.340;2023-04-08T13:10:51;6.93;;;4.90;;
53503;SDS011;39387;50.998;22.340;2023-04-08T13:13:19;6.97;;;5.07;;
53503;SDS011;39387;50.998;22.340;2023-04-08T13:15:46;7.97;;;4.97;;
53503;SDS011;39387;50.998;22.340;2023-04-08T13:18:14;6.72;;;4.75;;
53503;SDS011;39387;50.998;22.340;2023-04-08T13:20:41;7.13;;;4.78;;
53503;SDS011;39387;50.998;22.340;2023-04-08T13:23:10;7.75;;;5.30;;
53503;SDS011;39387;50.998;22.340;2023-04-08T13:25:39;6.90;;;4.80;;
53503;SDS011;39387;50.998;22.340;2023-04-08T13:28:07;7.10;;;4.97;;
53503;SDS011;39387;50.998;22.340;2023-04-08T13:30:35;7.40;;;5.18;;
53503;SDS011;39387;50.998;22.340;2023-04-08T13:33:02;7.55;;;4.78;;
53503;SDS011;39387;50.998;22.340;2023-04-08T13:35:30;6.07;;;4.43;;
53503;SDS011;39387;50.998;22.340;2023-04-08T13:37:57;6.72;;;4.85;;
53503;SDS011;39387;50.998;22.340;2023-04-08T13:40:27;6.68;;;4.55;;
53503;SDS011;39387;50.998;22.340;2023-04-08T13:42:55;6.40;;;4.95;;
53503;SDS011;39387;50.998;22.340;2023-04-08T13:45:23;6.78;;;4.65;;
53503;SDS011;39387;50.998;22.340;2023-04-08T13:47:50;6.68;;;4.53;;
53503;SDS011;39387;50.998;22.340;2023-04-08T13:50:18;7.30;;;5.43;;
53503;SDS011;39387;50.998;22.340;2023-04-08T13:52:46;6.40;;;3.70;;
53503;SDS011;39387;50.998;22.340;2023-04-08T13:55:14;6.97;;;4.43;;
53503;SDS011;39387;50.998;22.340;2023-04-08T13:57:44;7.15;;;4.80;;
53503;SDS011;39387;50.998;22.340;2023-04-08T14:00:12;7.00;;;4.57;;
53503;SDS011;39387;50.998;22.340;2023-04-08T14:02:40;6.45;;;4.68;;
53503;SDS011;39387;50.998;22.340;2023-04-08T14:05:08;7.10;;;4.80;;
53503;SDS011;39387;50.998;22.340;2023-04-08T14:07:36;7.43;;;5.07;;
53503;SDS011;39387;50.998;22.340;2023-04-08T14:10:04;7.53;;;4.85;;
53503;SDS011;39387;50.998;22.340;2023-04-08T14:12:32;7.20;;;5.00;;
53503;SDS011;39387;50.998;22.340;2023-04-08T14:15:01;7.88;;;5.10;;
53503;SDS011;39387;50.998;22.340;2023-04-08T14:17:29;8.55;;;4.95;;
53503;SDS011;39387;50.998;22.340;2023-04-08T14:19:57;6.43;;;4.40;;
53503;SDS011;39387;50.998;22.340;2023-04-08T14:22:25;6.95;;;4.82;;
53503;SDS011;39387;50.998;22.340;2023-04-08T14:24:53;7.13;;;5.22;;
53503;SDS011;39387;50.998;22.340;2023-04-08T14:27:21;7.90;;;5.05;;
53503;SDS011;39387;50.998;22.340;2023-04-08T14:29:48;6.95;;;4.72;;
53503;SDS011;39387;50.998;22.340;2023-04-08T14:32:17;7.15;;;4.63;;
53503;SDS011;39387;50.998;22.340;2023-04-08T14:34:46;8.30;;;5.10;;
53503;SDS011;39387;50.998;22.340;2023-04-08T14:37:13;6.70;;;4.60;;
53503;SDS011;39387;50.998;22.340;2023-04-08T14:39:43;8.48;;;5.10;;
53503;SDS011;39387;50.998;22.340;2023-04-08T14:42:10;7.35;;;4.75;;
53503;SDS011;39387;50.998;22.340;2023-04-08T14:44:40;7.37;;;4.77;;